(°F)
66°
69°
71°
73°
75°
77°
78°
(°F)
57°
59°
62°
64°
67°
70°
71°
SSW
SSW
SSW
SW
SW
SW
WSW
(mph)
16-30
17-30
17-30
18-32
17-38
16-45
15-48
(in)
0
0
0
0
0
0
0
(%)
0
1
1
2
1
1
0

Sun elevation

/ 45.3°
sun-icon
UV 7
05:01
21:25
Waxing gibbous moon (162°)
20:41
03:49

METAR for Dryden (CYHD)

Time Conditions Temperature/
Dewpoint
Wind Visibility Weather Clouds Pressure Change Raw
VFR 64.4°F / 46.4°F 210º 13kt Gust 19kt >10km - Broken Clouds 11000ft 1002 - CYHD 231400Z AUTO 21013G19KT 9SM BKN110 OVC130 18/08 A2958 RMK SLP023 DENSITY ALT 2400FT
VFR 64.4°F / 48.2°F 210º 13kt Gust 22kt >10km Light Rain 1.00mm precipitation Vertical Visibility of 0ft. 1002 - CYHD 231346Z AUTO 21013G22KT 9SM -RA BKN110 BKN130 18/09 A2959 RMK SLP025 DENSITY ALT 2400FT
VFR 62.6°F / 48.2°F 200º 13kt >10km - Few Clouds 12000ft 1002 - CYHD 231300Z AUTO 20013KT 9SM FEW120 BKN150 17/09 A2960 RMK SLP029 DENSITY ALT 2300FT
VFR 59°F / 48.2°F 200º 10kt Gust 16kt >10km - Clear 1003 - CYHD 231200Z AUTO 20010G16KT 9SM CLR 15/09 A2962 RMK SLP035 DENSITY ALT 2100FT
VFR 57.2°F / 48.2°F 200º 9kt >10km - Overcast 14000ft 1003 - CYHD 231100Z AUTO 20009KT 9SM OVC140 14/09 A2962 RMK SLP037 DENSITY ALT 2000FT
VFR 55.4°F / 48.2°F 200º 7kt >10km - Clear 1003 - CYHD 231000Z AUTO 20007KT 9SM CLR 13/09 A2963 RMK SLP039 DENSITY ALT 1900FT
VFR 55.4°F / 48.2°F 200º 7kt >10km - Broken Clouds 11000ft 1004 - CYHD 230900Z AUTO 20007KT 9SM BKN110 13/09 A2963 RMK SLP041 DENSITY ALT 1800FT
VFR 55.4°F / 50°F 180º 9kt >10km - Overcast 9600ft 1004 - CYHD 230800Z AUTO 18009KT 9SM OVC096 13/10 A2964 RMK SLP047 DENSITY ALT 1700FT
VFR 53.6°F / 50°F 170º 9kt >10km - Clear 1005 - CYHD 230700Z AUTO 17009KT 9SM CLR 12/10 A2966 RMK SLP052 DENSITY ALT 1700FT
VFR 55.4°F / 48.2°F 160º 9kt >10km - Clear 1005 - CYHD 230600Z AUTO 16009KT 9SM CLR 13/09 A2967 RMK SLP057 DENSITY ALT 1700FT
VFR 55.4°F / 48.2°F 170º 8kt >10km - Clear 1006 - CYHD 230500Z AUTO 17008KT 9SM CLR 13/09 A2968 RMK SLP060 DENSITY ALT 1700FT
VFR 57.2°F / 48.2°F 150º 8kt >10km - Clear 1006 - CYHD 230400Z AUTO 15008KT 9SM CLR 14/09 A2969 RMK SLP063 DENSITY ALT 1800FT
VFR 59°F / 48.2°F 140º 8kt >10km - Clear 1006 - CYHD 230300Z AUTO 14008KT 9SM CLR 15/09 A2970 RMK SLP065 DENSITY ALT 1900FT
VFR 60.8°F / 48.2°F 140º 7kt >10km - Clear 1006 - CYHD 230200Z AUTO 14007KT 9SM CLR 16/09 A2969 RMK SLP065 DENSITY ALT 2000FT
VFR 64.4°F / 46.4°F 160º 7kt >10km - Few Clouds 6600ft 1006 - CYHD 230100Z AUTO 16007KT 9SM FEW066 18/08 A2970 RMK SLP067 DENSITY ALT 2300FT
VFR 64.4°F / 48.2°F 70º variable 040º to 140º 3kt >10km - Broken Clouds 5500ft 1007 - CYHD 230000Z AUTO 07003KT 040V140 9SM BKN055 OVC072 18/09 A2971 RMK SLP070 DENSITY ALT 2300FT
VFR 60.8°F / 46.4°F 100º variable 060º to 130º 4kt >10km - Scattered Clouds 5000ft 1007 - CYHD 222300Z AUTO 10004KT 060V130 9SM SCT050 BKN060 OVC076 16/08 A2972 RMK SLP074 DENSITY ALT 2100FT
VFR 62.6°F / 46.4°F 110º 5kt >10km - Scattered Clouds 5000ft 1007 - CYHD 222248Z AUTO 11005KT 9SM SCT050 BKN060 OVC076 17/08 A2972 RMK SLP070 DENSITY ALT 2200FT
VFR 62.6°F / 46.4°F variable 2kt >10km Light Rain 1.00mm precipitation Vertical Visibility of 0ft. 1007 - CYHD 222237Z AUTO VRB02KT 9SM -RA SCT050 BKN060 OVC080 17/08 A2972 RMK SLP072 DENSITY ALT 2100FT
VFR 64.4°F / 44.6°F 180º variable 140º to 210º 9kt >10km - Scattered Clouds 5000ft 1008 - CYHD 222200Z AUTO 18009KT 140V210 9SM SCT050 BKN060 BKN086 18/07 A2973 RMK SLP080 DENSITY ALT 2200FT
VFR 62.6°F / 44.6°F 190º variable 120º to 210º 10kt Gust 15kt >10km - Few Clouds 6000ft 1008 - CYHD 222100Z AUTO 19010G15KT 120V210 9SM FEW060 BKN087 17/07 A2975 RMK SLP086 DENSITY ALT 2100FT
VFR 60.8°F / 44.6°F 210º variable 160º to 230º 7kt >10km - Scattered Clouds 5500ft 1008 - CYHD 222000Z AUTO 21007KT 160V230 9SM SCT055 BKN072 BKN091 16/07 A2976 RMK SLP088 DENSITY ALT 2000FT
VFR 59°F / 42.8°F 190º variable 170º to 240º 9kt >10km - Broken Clouds 7100ft 1009 - CYHD 221900Z AUTO 19009KT 170V240 9SM BKN071 OVC084 15/06 A2976 RMK SLP092 DENSITY ALT 1900FT
VFR 55.4°F / 42.8°F 210º 8kt >10km - Overcast 6600ft 1009 - CYHD 221830Z AUTO 21008KT 9SM OVC066 13/06 A2977 RMK SLP092 DENSITY ALT 1700FT

VFR

64.4°F / 46.4°F

[More]
Wind 210º 13kt Gust 19kt
Visibility >10km
Weather -
Clouds Broken Clouds 11000ft
Pressure 1002
Change -
Raw CYHD 231400Z AUTO 21013G19KT 9SM BKN110 OVC130 18/08 A2958 RMK SLP023 DENSITY ALT 2400FT

VFR

64.4°F / 48.2°F

[More]
Wind 210º 13kt Gust 22kt
Visibility >10km
Weather Light Rain 1.00mm precipitation
Clouds Vertical Visibility of 0ft.
Pressure 1002
Change -
Raw CYHD 231346Z AUTO 21013G22KT 9SM -RA BKN110 BKN130 18/09 A2959 RMK SLP025 DENSITY ALT 2400FT

VFR

62.6°F / 48.2°F

[More]
Wind 200º 13kt
Visibility >10km
Weather -
Clouds Few Clouds 12000ft
Pressure 1002
Change -
Raw CYHD 231300Z AUTO 20013KT 9SM FEW120 BKN150 17/09 A2960 RMK SLP029 DENSITY ALT 2300FT

VFR

59°F / 48.2°F

[More]
Wind 200º 10kt Gust 16kt
Visibility >10km
Weather -
Clouds Clear
Pressure 1003
Change -
Raw CYHD 231200Z AUTO 20010G16KT 9SM CLR 15/09 A2962 RMK SLP035 DENSITY ALT 2100FT

VFR

57.2°F / 48.2°F

[More]
Wind 200º 9kt
Visibility >10km
Weather -
Clouds Overcast 14000ft
Pressure 1003
Change -
Raw CYHD 231100Z AUTO 20009KT 9SM OVC140 14/09 A2962 RMK SLP037 DENSITY ALT 2000FT

VFR

55.4°F / 48.2°F

[More]
Wind 200º 7kt
Visibility >10km
Weather -
Clouds Clear
Pressure 1003
Change -
Raw CYHD 231000Z AUTO 20007KT 9SM CLR 13/09 A2963 RMK SLP039 DENSITY ALT 1900FT

VFR

55.4°F / 48.2°F

[More]
Wind 200º 7kt
Visibility >10km
Weather -
Clouds Broken Clouds 11000ft
Pressure 1004
Change -
Raw CYHD 230900Z AUTO 20007KT 9SM BKN110 13/09 A2963 RMK SLP041 DENSITY ALT 1800FT

VFR

55.4°F / 50°F

[More]
Wind 180º 9kt
Visibility >10km
Weather -
Clouds Overcast 9600ft
Pressure 1004
Change -
Raw CYHD 230800Z AUTO 18009KT 9SM OVC096 13/10 A2964 RMK SLP047 DENSITY ALT 1700FT

VFR

53.6°F / 50°F

[More]
Wind 170º 9kt
Visibility >10km
Weather -
Clouds Clear
Pressure 1005
Change -
Raw CYHD 230700Z AUTO 17009KT 9SM CLR 12/10 A2966 RMK SLP052 DENSITY ALT 1700FT

VFR

55.4°F / 48.2°F

[More]
Wind 160º 9kt
Visibility >10km
Weather -
Clouds Clear
Pressure 1005
Change -
Raw CYHD 230600Z AUTO 16009KT 9SM CLR 13/09 A2967 RMK SLP057 DENSITY ALT 1700FT

VFR

55.4°F / 48.2°F

[More]
Wind 170º 8kt
Visibility >10km
Weather -
Clouds Clear
Pressure 1006
Change -
Raw CYHD 230500Z AUTO 17008KT 9SM CLR 13/09 A2968 RMK SLP060 DENSITY ALT 1700FT

VFR

57.2°F / 48.2°F

[More]
Wind 150º 8kt
Visibility >10km
Weather -
Clouds Clear
Pressure 1006
Change -
Raw CYHD 230400Z AUTO 15008KT 9SM CLR 14/09 A2969 RMK SLP063 DENSITY ALT 1800FT

VFR

59°F / 48.2°F

[More]
Wind 140º 8kt
Visibility >10km
Weather -
Clouds Clear
Pressure 1006
Change -
Raw CYHD 230300Z AUTO 14008KT 9SM CLR 15/09 A2970 RMK SLP065 DENSITY ALT 1900FT

VFR

60.8°F / 48.2°F

[More]
Wind 140º 7kt
Visibility >10km
Weather -
Clouds Clear
Pressure 1006
Change -
Raw CYHD 230200Z AUTO 14007KT 9SM CLR 16/09 A2969 RMK SLP065 DENSITY ALT 2000FT

VFR

64.4°F / 46.4°F

[More]
Wind 160º 7kt
Visibility >10km
Weather -
Clouds Few Clouds 6600ft
Pressure 1006
Change -
Raw CYHD 230100Z AUTO 16007KT 9SM FEW066 18/08 A2970 RMK SLP067 DENSITY ALT 2300FT

VFR

64.4°F / 48.2°F

[More]
Wind 70º variable 040º to 140º 3kt
Visibility >10km
Weather -
Clouds Broken Clouds 5500ft
Pressure 1007
Change -
Raw CYHD 230000Z AUTO 07003KT 040V140 9SM BKN055 OVC072 18/09 A2971 RMK SLP070 DENSITY ALT 2300FT

VFR

60.8°F / 46.4°F

[More]
Wind 100º variable 060º to 130º 4kt
Visibility >10km
Weather -
Clouds Scattered Clouds 5000ft
Pressure 1007
Change -
Raw CYHD 222300Z AUTO 10004KT 060V130 9SM SCT050 BKN060 OVC076 16/08 A2972 RMK SLP074 DENSITY ALT 2100FT

VFR

62.6°F / 46.4°F

[More]
Wind 110º 5kt
Visibility >10km
Weather -
Clouds Scattered Clouds 5000ft
Pressure 1007
Change -
Raw CYHD 222248Z AUTO 11005KT 9SM SCT050 BKN060 OVC076 17/08 A2972 RMK SLP070 DENSITY ALT 2200FT

VFR

62.6°F / 46.4°F

[More]
Wind variable 2kt
Visibility >10km
Weather Light Rain 1.00mm precipitation
Clouds Vertical Visibility of 0ft.
Pressure 1007
Change -
Raw CYHD 222237Z AUTO VRB02KT 9SM -RA SCT050 BKN060 OVC080 17/08 A2972 RMK SLP072 DENSITY ALT 2100FT

VFR

64.4°F / 44.6°F

[More]
Wind 180º variable 140º to 210º 9kt
Visibility >10km
Weather -
Clouds Scattered Clouds 5000ft
Pressure 1008
Change -
Raw CYHD 222200Z AUTO 18009KT 140V210 9SM SCT050 BKN060 BKN086 18/07 A2973 RMK SLP080 DENSITY ALT 2200FT

VFR

62.6°F / 44.6°F

[More]
Wind 190º variable 120º to 210º 10kt Gust 15kt
Visibility >10km
Weather -
Clouds Few Clouds 6000ft
Pressure 1008
Change -
Raw CYHD 222100Z AUTO 19010G15KT 120V210 9SM FEW060 BKN087 17/07 A2975 RMK SLP086 DENSITY ALT 2100FT

VFR

60.8°F / 44.6°F

[More]
Wind 210º variable 160º to 230º 7kt
Visibility >10km
Weather -
Clouds Scattered Clouds 5500ft
Pressure 1008
Change -
Raw CYHD 222000Z AUTO 21007KT 160V230 9SM SCT055 BKN072 BKN091 16/07 A2976 RMK SLP088 DENSITY ALT 2000FT

VFR

59°F / 42.8°F

[More]
Wind 190º variable 170º to 240º 9kt
Visibility >10km
Weather -
Clouds Broken Clouds 7100ft
Pressure 1009
Change -
Raw CYHD 221900Z AUTO 19009KT 170V240 9SM BKN071 OVC084 15/06 A2976 RMK SLP092 DENSITY ALT 1900FT

VFR

55.4°F / 42.8°F

[More]
Wind 210º 8kt
Visibility >10km
Weather -
Clouds Overcast 6600ft
Pressure 1009
Change -
Raw CYHD 221830Z AUTO 21008KT 9SM OVC066 13/06 A2977 RMK SLP092 DENSITY ALT 1700FT

TAF for Dryden (CYHD)

From till


From till Wind 200º 12kt. Gust 22kt. Visibility 10km or more. Broken Clouds 15000ft.
Temporarly from till Visibility 10km or more. Light Showers Rain .
Becoming from till Wind 220º 18kt. Gust 28kt. Visibility 10km or more. Broken Clouds 15000ft.
From till Wind 230º 18kt. Gust 28kt. Visibility 10km or more. Broken Clouds 10000ft.
Temporarly from till Visibility 10km or more. Light Showers Rain .
With 30% probability, from till Wind variable 20kt. Gust 35kt. Visibility 2400m. Heavy Thunderstorm Rain Mist . Broken Clouds 6000ft.

Raw: TAF CYHD 231338Z 2314/2402 20012G22KT P6SM BKN150 TEMPO 2314/2317 P6SM -SHRA BECMG 2315/2317 22018G28KT FM232200 23018G28KT P6SM BKN100 TEMPO 2322/2402 P6SM -SHRA PROB30 2323/2402 VRB20G35KT 11/2SM +TSRA BR BKN060CB RMK FCST BASED ON AUTO OBS. NXT FCST BY 232000Z

Current satellite images for Dryden, Canada

The location marker is placed on Dryden. [More]

The real-time satellite image combines visible light during daytime with infrared radiation during nighttime. At night, the image is not dark as infrared radiation can detect temperature differences. Unfortunately, low clouds and fog are difficult to distinguish from ground temperatures and thus can be almost invisible during the night. Meteosat satellite images for Europe are updated in real-time every 5 minutes. GOES-16/GOES-17 (North & South America) and Himawari (Asia) images update every 10 minutes.

Radar and precipitation nowcast for Dryden

The location marker is placed on Dryden. This animation shows the precipitation radar for the last hour, as well as a 1h forecast. Drizzle or light snow fall might be invisible for the radar. Precipitation intensity is colour coded, ranging from light blue to heavy purple.